Pedro Bay, Alaska
Current Conditions -  °F | °C
As of 1:53 AM on Saturday 25 Oct 2014 (Local Time) from PAIL Reporting Station
Clear Clear  
Wind Chill: 14°   Ceiling: Unl
Heat Index: 24°   Visibility: 10mi
Dew Point: 20°   Wind: 10mph
Humidity: 84%   Direction: 330°NNW
Pressure: 29.99"   Gusts: NA
Location:  59.79°N, 154.14°W
Report Text: PAIL 250953Z AUTO 33009KT 10SM CLR M04/M07 A2999 RMK AO2 SLP160 T10441067 TSNO
Loading
Personal Weather Stations






























Interactive Weather Map
Tropical Storm Tracking
New forecast layout! Learn more

10-Day Weather Forecast

Advertisements
Track Severe Weather on mobile